createdAt,value
2023-02-12T00:00:54.263Z,19.13
2023-02-12T00:03:21.523Z,18.95
2023-02-12T00:05:48.683Z,20.30
2023-02-12T00:08:16.519Z,19.67
2023-02-12T00:10:44.545Z,20.38
2023-02-12T00:13:12.801Z,19.05
2023-02-12T00:15:41.479Z,19.83
2023-02-12T00:18:09.020Z,20.15
2023-02-12T00:20:38.232Z,19.65
2023-02-12T00:23:06.437Z,19.52
2023-02-12T00:25:34.182Z,19.65
2023-02-12T00:28:01.528Z,19.92
2023-02-12T00:30:28.844Z,19.88
2023-02-12T00:32:56.160Z,21.80
2023-02-12T00:35:23.388Z,21.88
2023-02-12T00:37:51.020Z,22.52
2023-02-12T00:40:18.343Z,21.25
2023-02-12T00:42:45.473Z,22.33
2023-02-12T00:45:12.709Z,21.23
2023-02-12T00:47:39.826Z,20.23
2023-02-12T00:50:08.502Z,20.63
2023-02-12T00:52:35.756Z,19.77
2023-02-12T00:55:03.015Z,19.58
2023-02-12T00:57:30.205Z,20.75
2023-02-12T00:59:57.580Z,20.05
2023-02-12T01:02:24.734Z,19.17
2023-02-12T01:04:52.088Z,19.50
2023-02-12T01:07:19.152Z,19.20
2023-02-12T01:09:46.720Z,18.40
2023-02-12T01:12:13.744Z,18.65
2023-02-12T01:14:40.892Z,19.02
2023-02-12T01:17:09.847Z,19.60
2023-02-12T01:19:36.954Z,19.02
2023-02-12T01:22:04.139Z,17.45
2023-02-12T01:24:31.331Z,19.52
2023-02-12T01:26:58.953Z,18.77
2023-02-12T01:29:26.243Z,20.05
2023-02-12T01:31:53.466Z,19.77
2023-02-12T01:34:21.112Z,20.00
2023-02-12T01:36:48.236Z,22.08
2023-02-12T01:39:15.492Z,20.92
2023-02-12T01:41:45.183Z,21.75
2023-02-12T01:44:17.990Z,20.70
2023-02-12T01:46:48.912Z,20.73
2023-02-12T01:49:29.043Z,22.23
2023-02-12T01:52:02.809Z,23.13
2023-02-12T01:54:31.803Z,21.65
2023-02-12T01:57:00.678Z,22.45
2023-02-12T01:59:29.128Z,23.60
2023-02-12T02:01:56.556Z,22.98
2023-02-12T02:04:29.539Z,24.05
2023-02-12T02:07:01.227Z,23.45
2023-02-12T02:09:31.093Z,22.23
2023-02-12T02:12:18.610Z,21.83
2023-02-12T02:14:47.355Z,23.38
2023-02-12T02:17:24.274Z,20.63
2023-02-12T02:19:51.728Z,21.90
2023-02-12T02:22:58.559Z,21.40
2023-02-12T02:25:53.360Z,21.20
2023-02-12T02:28:31.418Z,21.42
2023-02-12T02:31:05.514Z,21.50
2023-02-12T02:33:55.968Z,20.35
2023-02-12T02:37:00.061Z,20.67
2023-02-12T02:39:33.459Z,21.03
2023-02-12T02:42:16.869Z,20.10
2023-02-12T02:44:53.125Z,18.98
2023-02-12T02:47:28.218Z,20.38
2023-02-12T02:50:05.668Z,19.40
2023-02-12T02:52:42.070Z,19.83
2023-02-12T02:55:13.114Z,20.27
2023-02-12T02:57:56.419Z,20.00
2023-02-12T03:00:39.060Z,20.00
2023-02-12T03:03:12.523Z,20.80
2023-02-12T03:05:44.837Z,20.50
2023-02-12T03:08:18.415Z,19.48
2023-02-12T03:10:50.090Z,15.40
2023-02-12T03:13:26.885Z,19.48
2023-02-12T03:16:04.555Z,20.08
2023-02-12T03:18:46.370Z,20.27
2023-02-12T03:21:19.276Z,19.35
2023-02-12T03:23:58.323Z,19.00
2023-02-12T03:26:40.622Z,19.45
2023-02-12T03:29:08.364Z,19.48
2023-02-12T03:31:43.234Z,18.73
2023-02-12T03:34:40.051Z,18.80
2023-02-12T03:37:17.063Z,18.52
2023-02-12T03:40:18.426Z,17.67
2023-02-12T03:42:49.010Z,18.25
2023-02-12T03:45:27.399Z,17.92
2023-02-12T03:48:02.178Z,18.25
2023-02-12T03:52:57.709Z,21.48
2023-02-12T03:55:24.988Z,20.05
2023-02-12T03:57:59.562Z,19.23
2023-02-12T04:02:55.260Z,20.23
2023-02-12T04:05:26.002Z,18.60
2023-02-12T04:07:55.887Z,19.38
2023-02-12T04:10:35.896Z,21.23
2023-02-12T04:13:16.858Z,20.05
2023-02-12T04:15:57.283Z,18.35
2023-02-12T04:18:30.940Z,19.02
2023-02-12T04:21:08.514Z,19.73
2023-02-12T04:24:00.491Z,19.60
2023-02-12T04:26:42.307Z,19.42
2023-02-12T04:29:20.952Z,19.10
2023-02-12T04:31:56.178Z,18.42
2023-02-12T04:34:30.903Z,19.13
2023-02-12T04:37:28.154Z,19.23
2023-02-12T04:39:56.534Z,18.38
2023-02-12T04:42:23.934Z,19.77
2023-02-12T04:44:51.065Z,19.48
2023-02-12T04:47:18.454Z,19.98
2023-02-12T04:49:45.681Z,20.20
2023-02-12T04:52:14.002Z,20.48
2023-02-12T04:54:41.222Z,19.88
2023-02-12T04:57:09.673Z,20.52
2023-02-12T04:59:36.874Z,22.55
2023-02-12T05:02:04.150Z,22.70
2023-02-12T05:04:31.417Z,20.85
2023-02-12T05:06:58.614Z,20.25
2023-02-12T05:09:25.689Z,19.70
2023-02-12T05:11:53.017Z,19.63
2023-02-12T05:14:20.150Z,19.05
2023-02-12T05:16:47.344Z,19.55
2023-02-12T05:19:14.435Z,20.73
2023-02-12T05:21:41.566Z,20.13
2023-02-12T05:24:09.282Z,19.38
2023-02-12T05:26:36.948Z,19.17
2023-02-12T05:29:04.609Z,47.33
2023-02-12T05:31:31.775Z,23.83
2023-02-12T05:33:59.025Z,18.92
2023-02-12T05:36:26.510Z,20.05
2023-02-12T05:38:58.492Z,18.88
2023-02-12T05:41:26.242Z,19.95
2023-02-12T05:43:54.727Z,18.23
2023-02-12T05:46:22.353Z,18.13
2023-02-12T05:48:49.597Z,17.80
2023-02-12T05:51:21.733Z,18.05
2023-02-12T05:53:50.833Z,18.27
2023-02-12T05:56:27.550Z,18.38
2023-02-12T05:58:58.098Z,18.27
2023-02-12T06:01:30.324Z,18.67
2023-02-12T06:03:59.484Z,18.40
2023-02-12T06:06:28.179Z,18.45
2023-02-12T06:08:55.705Z,18.35
2023-02-12T06:11:23.027Z,18.10
2023-02-12T06:13:51.071Z,18.52
2023-02-12T06:16:18.984Z,19.08
2023-02-12T06:18:46.381Z,18.67
2023-02-12T06:21:13.610Z,18.00
2023-02-12T06:23:41.196Z,18.35
2023-02-12T06:26:08.591Z,19.63
2023-02-12T06:28:36.019Z,19.75
2023-02-12T06:31:03.457Z,20.13
2023-02-12T06:33:30.756Z,19.88
2023-02-12T06:35:58.185Z,19.75
2023-02-12T06:38:25.445Z,20.23
2023-02-12T06:40:52.611Z,19.23
2023-02-12T06:43:19.679Z,19.73
2023-02-12T06:45:46.797Z,19.67
2023-02-12T06:48:13.827Z,19.95
2023-02-12T06:50:41.041Z,19.95
2023-02-12T06:53:08.217Z,18.90
2023-02-12T06:55:35.568Z,18.92
2023-02-12T06:58:02.781Z,20.23
2023-02-12T07:00:30.163Z,19.55
2023-02-12T07:02:57.677Z,19.55
2023-02-12T07:05:25.303Z,20.25
2023-02-12T07:07:52.438Z,19.92
2023-02-12T07:10:19.961Z,19.17
2023-02-12T07:12:47.322Z,18.95
2023-02-12T07:15:14.862Z,19.52
2023-02-12T07:17:42.294Z,20.83
2023-02-12T07:20:09.823Z,19.23
2023-02-12T07:22:37.426Z,19.02
2023-02-12T07:25:05.088Z,18.75
2023-02-12T07:27:32.376Z,19.42
2023-02-12T07:29:59.387Z,21.58
2023-02-12T07:32:27.339Z,23.33
2023-02-12T07:34:57.238Z,27.55
2023-02-12T07:37:24.921Z,22.35
2023-02-12T07:39:52.258Z,20.95
2023-02-12T07:42:19.350Z,17.55
2023-02-12T07:44:50.130Z,18.33
2023-02-12T07:47:17.444Z,19.83
2023-02-12T07:49:44.638Z,18.23
2023-02-12T07:52:13.483Z,18.17
2023-02-12T07:54:40.810Z,18.00
2023-02-12T07:57:07.951Z,24.80
2023-02-12T07:59:35.099Z,29.35
2023-02-12T08:02:02.582Z,22.13
2023-02-12T08:04:29.819Z,23.15
2023-02-12T08:06:57.356Z,19.98
2023-02-12T08:09:27.481Z,20.55
2023-02-12T08:11:55.028Z,17.08
2023-02-12T08:14:22.777Z,18.15
2023-02-12T08:16:51.808Z,18.67
2023-02-12T08:19:22.724Z,17.98
2023-02-12T08:21:53.639Z,17.40
2023-02-12T08:24:22.348Z,17.23
2023-02-12T08:26:49.941Z,16.90
2023-02-12T08:29:20.359Z,16.67
2023-02-12T08:31:50.291Z,17.08
2023-02-12T08:34:23.465Z,16.20
2023-02-12T08:36:54.135Z,17.60
2023-02-12T08:39:22.188Z,16.92
2023-02-12T08:41:49.710Z,17.20
2023-02-12T08:44:17.272Z,17.42
2023-02-12T08:46:48.210Z,17.20
2023-02-12T08:49:19.126Z,17.45
2023-02-12T08:51:49.242Z,17.58
2023-02-12T08:54:19.409Z,16.77
2023-02-12T08:56:46.754Z,17.15
2023-02-12T08:59:15.800Z,16.45
2023-02-12T09:01:44.208Z,17.40
2023-02-12T09:04:18.026Z,18.60
2023-02-12T09:06:46.760Z,16.55
2023-02-12T09:09:14.976Z,17.25
2023-02-12T09:11:42.582Z,16.77
2023-02-12T09:14:13.371Z,17.17
2023-02-12T09:16:40.658Z,17.65
2023-02-12T09:19:09.276Z,18.92
2023-02-12T09:21:36.423Z,18.17
2023-02-12T09:24:03.809Z,17.35
2023-02-12T09:26:31.330Z,16.63
2023-02-12T09:28:58.915Z,17.55
2023-02-12T09:31:29.265Z,16.63
2023-02-12T09:34:00.638Z,17.38
2023-02-12T09:36:29.015Z,17.02
2023-02-12T09:38:56.831Z,17.35
2023-02-12T09:41:24.891Z,17.10
2023-02-12T09:44:18.164Z,17.00
2023-02-12T09:46:49.375Z,16.58
2023-02-12T09:49:18.075Z,17.30
2023-02-12T09:51:51.541Z,16.88
2023-02-12T09:54:21.333Z,16.80
2023-02-12T09:56:52.817Z,16.75
2023-02-12T09:59:49.022Z,17.52
2023-02-12T10:02:18.559Z,16.70
2023-02-12T10:05:00.242Z,16.80
2023-02-12T10:07:48.955Z,16.83
2023-02-12T10:10:46.702Z,17.08
2023-02-12T10:13:19.441Z,16.55
2023-02-12T10:16:05.993Z,15.70
2023-02-12T10:18:47.536Z,15.43
2023-02-12T10:21:23.766Z,15.90
2023-02-12T10:24:12.000Z,16.05
2023-02-12T10:26:49.510Z,16.15
2023-02-12T10:29:22.014Z,15.35
2023-02-12T10:31:55.295Z,14.70
2023-02-12T10:34:27.032Z,14.98
2023-02-12T10:37:03.117Z,14.65
2023-02-12T10:39:36.859Z,14.65
2023-02-12T10:42:14.865Z,14.73
2023-02-12T10:44:42.742Z,14.52
2023-02-12T10:47:19.743Z,14.02
2023-02-12T10:49:53.120Z,13.23
2023-02-12T10:52:47.494Z,12.95
2023-02-12T10:55:34.215Z,11.67
2023-02-12T10:58:04.131Z,12.10
2023-02-12T11:00:33.418Z,11.75
2023-02-12T11:03:06.485Z,10.70
2023-02-12T11:05:36.669Z,10.55
2023-02-12T11:08:05.059Z,11.52
2023-02-12T11:10:39.219Z,9.88
2023-02-12T11:13:07.705Z,9.63
2023-02-12T11:15:46.564Z,9.00
2023-02-12T11:18:23.257Z,9.98
2023-02-12T11:20:53.018Z,8.98
2023-02-12T11:23:27.414Z,8.82
2023-02-12T11:25:59.154Z,8.48
2023-02-12T11:28:27.029Z,8.68
2023-02-12T11:30:59.018Z,8.30
2023-02-12T11:33:28.191Z,8.50
2023-02-12T11:36:16.957Z,8.57
2023-02-12T11:39:00.791Z,7.25
2023-02-12T11:41:36.313Z,8.15
2023-02-12T11:44:12.667Z,7.43
2023-02-12T11:46:41.010Z,6.90
2023-02-12T11:49:09.421Z,5.30
2023-02-12T11:51:38.539Z,4.90
2023-02-12T11:54:06.761Z,4.50
2023-02-12T11:56:50.231Z,3.15
2023-02-12T11:59:35.967Z,2.85
2023-02-12T12:02:32.886Z,2.50
2023-02-12T12:05:09.933Z,2.50
2023-02-12T12:07:41.571Z,2.65
2023-02-12T12:10:19.022Z,2.42
2023-02-12T12:12:51.976Z,2.20
2023-02-12T12:15:58.179Z,2.25
2023-02-12T12:18:56.877Z,2.05
2023-02-12T12:21:37.225Z,2.17
2023-02-12T12:24:10.554Z,2.20
2023-02-12T12:26:42.075Z,2.72
2023-02-12T12:29:32.432Z,1.92
2023-02-12T12:32:03.802Z,2.55
2023-02-12T12:34:31.300Z,1.58
2023-02-12T12:36:59.516Z,1.58
2023-02-12T12:39:33.544Z,1.85
2023-02-12T12:42:19.759Z,1.40
2023-02-12T12:45:10.664Z,1.98
2023-02-12T12:48:02.780Z,1.60
2023-02-12T12:50:50.086Z,1.08
2023-02-12T12:53:43.031Z,1.08
2023-02-12T12:56:30.337Z,1.17
2023-02-12T12:59:17.411Z,1.10
2023-02-12T13:02:04.662Z,1.30
2023-02-12T13:04:53.360Z,1.00
2023-02-12T13:07:46.596Z,0.80
2023-02-12T13:10:21.093Z,0.90
2023-02-12T13:12:49.610Z,0.98
2023-02-12T13:15:32.859Z,1.13
2023-02-12T13:18:20.006Z,1.38
2023-02-12T13:21:11.688Z,0.90
2023-02-12T13:23:59.678Z,1.20
2023-02-12T13:27:01.230Z,0.73
2023-02-12T13:29:35.492Z,1.33
2023-02-12T13:32:13.272Z,0.90
2023-02-12T13:34:43.540Z,1.10
2023-02-12T13:37:20.834Z,0.90
2023-02-12T13:39:50.550Z,1.15
2023-02-12T13:42:29.131Z,1.10
2023-02-12T13:45:32.224Z,0.90
2023-02-12T13:48:21.124Z,1.00
2023-02-12T13:51:00.040Z,0.90
2023-02-12T13:54:01.674Z,1.15
2023-02-12T13:56:40.710Z,1.00
2023-02-12T13:59:31.472Z,1.20
2023-02-12T14:01:59.579Z,0.98
2023-02-12T14:04:54.736Z,1.23
2023-02-12T14:09:50.805Z,1.10
2023-02-12T14:12:31.356Z,0.73
2023-02-12T14:15:19.659Z,0.90
2023-02-12T14:18:02.881Z,0.70
2023-02-12T14:20:31.297Z,1.08
2023-02-12T14:23:02.228Z,0.95
2023-02-12T14:25:39.568Z,1.00
2023-02-12T14:28:13.053Z,0.63
2023-02-12T14:30:40.975Z,0.90
2023-02-12T14:33:08.458Z,1.00
2023-02-12T14:35:40.781Z,0.82
2023-02-12T14:38:15.625Z,0.90
2023-02-12T14:40:44.529Z,1.00
2023-02-12T14:43:59.134Z,1.50
2023-02-12T14:46:26.391Z,1.13
2023-02-12T14:49:05.036Z,1.10
2023-02-12T14:51:42.977Z,0.70
2023-02-12T14:54:37.545Z,0.95
2023-02-12T14:57:11.447Z,1.25
2023-02-12T14:59:43.024Z,1.00
2023-02-12T15:02:23.148Z,1.20
2023-02-12T15:04:52.920Z,1.35
2023-02-12T15:07:33.280Z,1.25
2023-02-12T15:10:07.537Z,1.00
2023-02-12T15:12:45.567Z,1.00
2023-02-12T15:15:34.783Z,0.90
2023-02-12T15:18:16.517Z,1.10
2023-02-12T15:21:06.789Z,1.23
2023-02-12T15:23:40.020Z,1.02
2023-02-12T15:26:15.712Z,0.98
2023-02-12T15:28:45.812Z,1.10
2023-02-12T15:31:17.979Z,1.27
2023-02-12T15:33:49.337Z,1.20
2023-02-12T15:36:20.411Z,1.05
2023-02-12T15:38:53.722Z,1.00
2023-02-12T15:41:27.888Z,1.13
2023-02-12T15:43:55.700Z,1.55
2023-02-12T15:46:23.786Z,1.13
2023-02-12T15:48:51.419Z,1.20
2023-02-12T15:51:29.883Z,0.98
2023-02-12T15:53:59.736Z,1.35
2023-02-12T15:56:28.234Z,1.13
2023-02-12T15:58:58.429Z,1.50
2023-02-12T16:01:29.160Z,1.58
2023-02-12T16:04:02.931Z,1.40
2023-02-12T16:06:34.525Z,1.07
2023-02-12T16:09:08.108Z,1.15
2023-02-12T16:11:37.046Z,1.15
2023-02-12T16:14:17.680Z,1.10
2023-02-12T16:16:49.737Z,1.50
2023-02-12T16:19:23.236Z,1.35
2023-02-12T16:21:56.060Z,1.25
2023-02-12T16:24:26.916Z,1.30
2023-02-12T16:26:55.269Z,1.52
2023-02-12T16:29:22.764Z,1.70
2023-02-12T16:31:59.873Z,2.20
2023-02-12T16:34:31.089Z,1.70
2023-02-12T16:36:59.059Z,1.58
2023-02-12T16:39:53.724Z,1.48
2023-02-12T16:42:26.849Z,1.55
2023-02-12T16:44:54.031Z,1.38
2023-02-12T16:47:23.879Z,1.67
2023-02-12T16:49:59.095Z,1.42
2023-02-12T16:52:42.531Z,1.58
2023-02-12T16:55:15.490Z,1.60
2023-02-12T16:57:43.223Z,1.58
2023-02-12T17:00:16.577Z,1.63
2023-02-12T17:02:44.707Z,1.83
2023-02-12T17:05:13.869Z,1.73
2023-02-12T17:07:41.295Z,3.35
2023-02-12T17:10:17.489Z,3.67
2023-02-12T17:12:46.938Z,3.65
2023-02-12T17:15:29.891Z,4.18
2023-02-12T17:17:57.195Z,4.18
2023-02-12T17:20:24.269Z,4.85
2023-02-12T17:22:54.625Z,5.80
2023-02-12T17:25:22.134Z,6.88
2023-02-12T17:27:49.213Z,7.00
2023-02-12T17:30:21.638Z,4.72
2023-02-12T17:32:51.191Z,5.15
2023-02-12T17:35:19.274Z,5.00
2023-02-12T17:37:48.242Z,5.22
2023-02-12T17:40:15.428Z,5.75
2023-02-12T17:42:42.696Z,5.32
2023-02-12T17:45:10.245Z,4.10
2023-02-12T17:47:40.148Z,5.60
2023-02-12T17:50:13.862Z,3.67
2023-02-12T17:52:41.685Z,3.55
2023-02-12T17:55:11.631Z,4.72
2023-02-12T17:57:39.360Z,5.82
2023-02-12T18:00:11.025Z,5.60
2023-02-12T18:02:41.981Z,4.68
2023-02-12T18:05:09.688Z,4.78
2023-02-12T18:07:37.790Z,5.63
2023-02-12T18:10:06.974Z,5.78
2023-02-12T18:12:35.208Z,4.80
2023-02-12T18:15:04.247Z,6.38
2023-02-12T18:17:31.621Z,8.40
2023-02-12T18:19:58.936Z,10.43
2023-02-12T18:22:26.424Z,12.55
2023-02-12T18:24:54.179Z,35.63
2023-02-12T18:27:21.601Z,39.33
2023-02-12T18:29:48.729Z,44.22
2023-02-12T18:32:16.302Z,27.83
2023-02-12T18:34:44.441Z,27.27
2023-02-12T18:37:13.371Z,28.52
2023-02-12T18:39:41.362Z,26.80
2023-02-12T18:42:09.349Z,19.05
2023-02-12T18:44:37.353Z,13.27
2023-02-12T18:47:04.539Z,11.23
2023-02-12T18:49:32.025Z,12.07
2023-02-12T18:51:59.120Z,9.98
2023-02-12T18:54:26.518Z,9.50
2023-02-12T18:56:54.021Z,8.57
2023-02-12T18:59:21.949Z,9.55
2023-02-12T19:01:51.000Z,8.90
2023-02-12T19:04:21.142Z,9.35
2023-02-12T19:06:53.106Z,9.35
2023-02-12T19:09:24.270Z,10.82
2023-02-12T19:11:55.096Z,12.52
2023-02-12T19:14:24.196Z,11.90
2023-02-12T19:16:52.018Z,10.23
2023-02-12T19:19:21.198Z,9.43
2023-02-12T19:21:48.618Z,9.07
2023-02-12T19:24:17.193Z,9.80
2023-02-12T19:26:45.023Z,9.57
2023-02-12T19:29:14.065Z,10.13
2023-02-12T19:31:45.702Z,8.63
2023-02-12T19:34:17.539Z,7.85
2023-02-12T19:36:46.087Z,7.25
2023-02-12T19:39:15.371Z,7.32
2023-02-12T19:41:43.035Z,6.97
2023-02-12T19:44:12.844Z,6.38
2023-02-12T19:46:40.663Z,6.50
2023-02-12T19:49:11.691Z,6.88
2023-02-12T19:51:39.632Z,6.32
2023-02-12T19:54:08.626Z,6.53
2023-02-12T19:56:36.448Z,7.43
2023-02-12T19:59:04.474Z,6.47
2023-02-12T20:01:32.384Z,6.57
2023-02-12T20:04:00.743Z,7.65
2023-02-12T20:06:33.316Z,6.68
2023-02-12T20:09:01.326Z,6.90
2023-02-12T20:11:30.782Z,7.65
2023-02-12T20:13:58.576Z,8.75
2023-02-12T20:16:31.304Z,6.50
2023-02-12T20:19:02.772Z,5.10
2023-02-12T20:21:30.355Z,4.18
2023-02-12T20:23:59.300Z,4.88
2023-02-12T20:26:26.705Z,4.60
2023-02-12T20:28:54.395Z,4.65
2023-02-12T20:31:25.126Z,4.95
2023-02-12T20:33:55.578Z,4.70
2023-02-12T20:36:23.806Z,4.70
2023-02-12T20:38:53.285Z,4.80
2023-02-12T20:41:20.689Z,4.97
2023-02-12T20:43:47.772Z,4.97
2023-02-12T20:46:20.258Z,4.30
2023-02-12T20:48:48.189Z,3.88
2023-02-12T20:51:18.968Z,3.95
2023-02-12T20:53:47.072Z,3.05
2023-02-12T20:56:20.718Z,3.30
2023-02-12T20:58:48.832Z,2.60
2023-02-12T21:01:21.146Z,4.75
2023-02-12T21:03:49.559Z,3.17
2023-02-12T21:06:16.908Z,2.80
2023-02-12T21:08:44.558Z,2.60
2023-02-12T21:11:15.423Z,3.30
2023-02-12T21:13:53.945Z,3.20
2023-02-12T21:16:27.567Z,3.20
2023-02-12T21:18:55.919Z,3.25
2023-02-12T21:21:25.657Z,2.67
2023-02-12T21:23:55.936Z,3.95
2023-02-12T21:26:25.662Z,4.35
2023-02-12T21:28:53.714Z,5.68
2023-02-12T21:31:23.339Z,4.28
2023-02-12T21:33:52.731Z,3.50
2023-02-12T21:36:23.523Z,3.90
2023-02-12T21:38:51.925Z,7.03
2023-02-12T21:41:20.884Z,8.73
2023-02-12T21:43:50.648Z,5.63
2023-02-12T21:46:19.719Z,4.80
2023-02-12T21:48:47.400Z,3.60
2023-02-12T21:51:17.999Z,3.47
2023-02-12T21:53:45.829Z,4.20
2023-02-12T21:56:13.272Z,4.57
2023-02-12T21:58:41.028Z,3.75
2023-02-12T22:01:12.016Z,5.53
2023-02-12T22:03:39.294Z,8.98
2023-02-12T22:06:08.252Z,6.47
2023-02-12T22:08:36.059Z,19.38
2023-02-12T22:11:06.193Z,16.77
2023-02-12T22:13:33.651Z,9.90
2023-02-12T22:16:18.414Z,6.07
2023-02-12T22:21:15.569Z,5.30
2023-02-12T22:23:43.656Z,3.58
2023-02-12T22:26:15.719Z,3.03
2023-02-12T22:28:45.707Z,3.50
2023-02-12T22:31:17.221Z,3.33
2023-02-12T22:33:44.723Z,3.80
2023-02-12T22:36:11.709Z,3.58
2023-02-12T22:38:40.275Z,4.95
2023-02-12T22:41:08.831Z,4.40
2023-02-12T22:43:38.720Z,4.50
2023-02-12T22:46:07.557Z,4.20
2023-02-12T22:48:34.864Z,3.92
2023-02-12T22:51:09.621Z,3.22
2023-02-12T22:53:36.791Z,3.08
2023-02-12T22:56:05.906Z,3.25
2023-02-12T22:58:34.162Z,3.35
2023-02-12T23:01:10.928Z,3.38
2023-02-12T23:03:38.113Z,4.20
2023-02-12T23:06:08.125Z,4.03
2023-02-12T23:08:35.582Z,2.97
2023-02-12T23:11:02.928Z,3.25
2023-02-12T23:13:30.526Z,3.30
2023-02-12T23:15:57.988Z,3.38
2023-02-12T23:18:25.431Z,3.10
2023-02-12T23:20:53.330Z,4.57
2023-02-12T23:23:21.514Z,4.00
2023-02-12T23:25:48.902Z,4.15
2023-02-12T23:28:16.713Z,4.30
2023-02-12T23:30:43.940Z,3.40
2023-02-12T23:33:11.363Z,3.45
2023-02-12T23:35:38.585Z,3.55
2023-02-12T23:38:05.836Z,3.72
2023-02-12T23:40:34.051Z,3.80
2023-02-12T23:43:01.287Z,3.65
2023-02-12T23:45:29.104Z,4.05
2023-02-12T23:47:56.292Z,4.47
2023-02-12T23:50:23.827Z,5.03
2023-02-12T23:52:51.117Z,5.13
2023-02-12T23:55:20.237Z,4.72
2023-02-12T23:57:47.922Z,4.32
